Adrian, Michigan
Current Conditions -  °F | °C
As of 7:16 PM on Saturday 22 Nov 2014 (Local Time) from KADG Reporting Station
Overcast Overcast  
Wind Chill:   Ceiling: 2900
Heat Index:   Visibility: 10mi
Dew Point:   Wind: 13mph
Humidity: 86%   Direction: 230°SW
Pressure: 29.96"   Gusts: NA
Location:  41.9°N, 84.04°W
Report Text: KADG 230016Z AUTO 23011KT 10SM OVC029 08/06 A2996 RMK AO2 T00780056
Loading
Personal Weather Stations






























Interactive Weather Map New forecast layout! Learn more

10-Day Weather Forecast

Advertisements
Track Severe Weather on mobile